• Join FlightAware (Why Join?)
  • Login
  • US Flag 
01:27AM EDT


 

Airport Tracker/Info


-or-


 

Live Flight TrackerFlight Track Log ✈ N175PL ✈ 27-Apr-2013 ✈ KMFE - KLRD

Flight Track Log - Related Links

Times and Time Zones

All times are in EDT time to prevent confusion due to time zone crossing. See the N175PL flight status page for this flight to view local times or setup timezone preferences in your user account.

Time Position Orientation Groundspeed Altitude Reporting Facility
EDT Latitude Longitude Course Direction KTS MPH feet Rate Location/Type
06:58PM 26.1808 -98.2097 38° Northeast 154 177 1,900  Level Houston Center
06:58PM 26.1986 -98.2178 338° Northwest 175 201 2,900 2,820 Climbing Houston Center
06:59PM 26.2094 -98.2433 295° West 177 204 4,500 2,760 Climbing Houston Center
06:59PM 26.2211 -98.2622 305° West 161 185 5,800 1,620 Climbing Houston Center
07:00PM 26.2558 -98.3125 308° West 215 247 6,900 1,680 Climbing Houston Center
07:01PM 26.2986 -98.3506 321° Northwest 199 229 9,300 2,340 Climbing Houston Center
07:02PM 26.3406 -98.3908 319° Northwest 187 215 11,800 1,260 Climbing Houston Center
07:03PM 26.3864 -98.4344 320° Northwest 218 251 12,000 60 Climbing Houston Center
07:05PM 26.4411 -98.4803 323° Northwest 242 278 12,000  Level Houston Center
07:06PM 26.4989 -98.5328 321° Northwest 248 285 12,000  Level Houston Center
07:07PM 26.5544 -98.5811 322° Northwest 251 289 12,000 -60 Level Houston Center
07:08PM 26.6067 -98.6264 322° Northwest 251 289 11,900  Descending Houston Center
07:09PM 26.6600 -98.6767 320° Northwest 250 288 12,000  Climbing Houston Center
07:10PM 26.7150 -98.7258 321° Northwest 252 290 12,000 -60 Level Houston Center
07:11PM 26.7703 -98.7764 321° Northwest 254 292 11,900  Descending Houston Center
07:12PM 26.8244 -98.8264 321° Northwest 253 291 12,000  Climbing Houston Center
07:13PM 26.8903 -98.8861 321° Northwest 254 292 12,000  Level Houston Center
07:14PM 26.9447 -98.9347 321° Northwest 252 290 12,000 -180 Level Houston Center
07:15PM 27.0006 -98.9844 322° Northwest 253 291 11,700 -540 Descending Houston Center
07:16PM 27.0586 -99.0372 321° Northwest 259 298 10,900 -960 Descending Houston Center
07:17PM 27.1186 -99.0908 322° Northwest 267 307 9,800 -1,080 Descending Houston Center
07:18PM 27.1775 -99.1442 321° Northwest 270 311 8,700 -1,080 Descending Houston Center
07:19PM 27.2286 -99.1881 323° Northwest 250 288 7,600 -900 Descending Houston Center
07:20PM 27.2781 -99.2081 340° North 214 246 6,900 -1,080 Descending Houston Center
07:21PM 27.3339 -99.2108 357° North 202 232 5,400 -1,320 Descending Houston Center
07:22PM 27.3967 -99.2175 355° North 212 244 4,200 -780 Descending Houston Center
07:23PM 27.4611 -99.2256 354° North 223 257 3,900 -120 Descending Houston Center
07:24PM 27.5381 -99.2333 355° North 227 261 4,000  Climbing Houston Center
07:25PM 27.6003 -99.2414 353° North 226 260 4,000 -60 Level Houston Center
07:26PM 27.6644 -99.2478 355° North 227 261 3,900 -60 Descending Houston Center
07:27PM 27.7269 -99.2542 355° North 227 261 3,900  Level Houston Center
07:28PM 27.7867 -99.2694 347° North 235 270 4,000  Climbing Houston Center
07:29PM 27.7889 -99.3328 272° West 215 247 3,900 -60 Descending Houston Center
07:30PM 27.7875 -99.3928 269° West 202 232 3,900  Level Houston Center
07:31PM 27.7600 -99.4358 234° Southwest 198 228 3,900 -360 Level Houston Center
07:32PM 27.7161 -99.4536 200° South 176 203 3,200 -600 Descending Houston Center
07:33PM 27.6683 -99.4567 183° South 174 200 2,700 -780 Descending Houston Center
07:34PM 27.6169 -99.4589 182° South 162 186 1,700 -780 Descending Houston Center
07:35PM 27.5872 -99.4614 184° South 134 154 1,200 -600 Descending Houston Center
07:36PM 27.5594 -99.4622 182° South 112 129 600 -600 Descending Houston Center